Time;durP1;ratioP1;P1;durP2;ratioP2;P2;SDS_P1;SDS_P2;PMS_P1;PMS_P2;Temp;Humidity;BMP_temperature;BMP_pressure;BME280_temperature;BME280_humidity;BME280_pressure;Samples;Min_cycle;Max_cycle;Signal;HPM_P1;HPM_P2
2021/04/15 08:34:04;;;;;;;4.67;3.77;;;20.20;30.20;;;;;;5125870;27;20648;-37
2021/04/15 08:37:03;;;;;;;6.00;3.97;;;20.60;28.80;;;;;;5109383;28;20510;-38
2021/04/15 08:41:42;;;;;;;8.27;4.20;;;20.90;27.80;;;;;;5044923;27;80892;-40
2021/04/15 08:44:20;;;;;;;6.20;3.53;;;21.00;27.90;;;;;;4923497;28;55544;-38
2021/04/15 08:47:03;;;;;;;9.20;3.73;;;21.10;27.70;;;;;;5011740;28;20432;-41
2021/04/15 08:49:42;;;;;;;5.20;4.00;;;21.20;27.60;;;;;;4985056;28;20455;-40
2021/04/15 08:52:40;;;;;;;6.60;3.10;;;21.20;27.70;;;;;;5016869;28;20903;-41
2021/04/15 08:55:22;;;;;;;8.00;3.20;;;21.20;27.60;;;;;;5007183;28;20492;-39
2021/04/15 08:58:44;;;;;;;6.73;4.03;;;21.20;27.60;;;;;;5007477;28;20415;-39
2021/04/15 09:01:27;;;;;;;5.73;3.57;;;21.20;27.60;;;;;;4985011;28;20915;-39
2021/04/15 09:04:05;;;;;;;6.53;3.50;;;21.10;27.60;;;;;;4993925;28;20423;-43
2021/04/15 09:06:52;;;;;;;6.17;3.70;;;21.10;27.70;;;;;;5007928;28;20420;-43
2021/04/15 09:09:55;;;;;;;3.80;3.40;;;21.10;27.80;;;;;;5007116;28;20820;-40
2021/04/15 09:12:42;;;;;;;5.20;3.80;;;21.10;27.70;;;;;;4987962;28;20420;-41
2021/04/15 09:15:58;;;;;;;5.87;3.50;;;21.10;27.90;;;;;;4987603;28;20512;-44
2021/04/15 09:18:33;;;;;;;5.53;3.93;;;21.10;27.70;;;;;;4957047;28;20483;-42
2021/04/15 09:21:42;;;;;;;4.07;3.20;;;21.10;27.70;;;;;;5019235;28;20411;-39
2021/04/15 09:24:18;;;;;;;3.67;3.37;;;21.20;27.60;;;;;;5006690;28;20896;-44
2021/04/15 09:27:09;;;;;;;3.80;3.47;;;21.10;27.60;;;;;;5006613;28;20439;-42
2021/04/15 09:29:49;;;;;;;6.33;3.00;;;21.10;27.80;;;;;;5007211;28;20418;-42
2021/04/15 09:32:28;;;;;;;6.23;4.00;;;21.10;27.60;;;;;;5007293;28;21088;-45
2021/04/15 09:35:36;;;;;;;6.50;3.33;;;21.20;27.70;;;;;;5007348;28;20773;-42
2021/04/15 09:38:34;;;;;;;5.50;3.70;;;21.30;27.60;;;;;;5007213;28;20420;-43
2021/04/15 09:41:26;;;;;;;3.63;2.77;;;21.20;27.60;;;;;;5007739;28;20437;-40
2021/04/15 09:44:11;;;;;;;3.07;2.70;;;21.10;27.70;;;;;;4996763;28;20417;-46
2021/04/15 09:46:57;;;;;;;3.73;3.00;;;21.10;28.20;;;;;;5006565;28;20938;-40
2021/04/15 09:49:45;;;;;;;4.53;2.80;;;21.10;27.80;;;;;;5006758;28;20419;-39
2021/04/15 09:52:46;;;;;;;3.87;3.10;;;21.10;27.80;;;;;;4994707;28;20515;-47
2021/04/15 09:55:32;;;;;;;3.83;2.60;;;21.10;28.00;;;;;;4993127;28;20852;-41
2021/04/15 09:58:09;;;;;;;4.43;3.80;;;21.00;28.00;;;;;;4973719;28;20870;-39
2021/04/15 10:00:47;;;;;;;3.27;2.50;;;21.00;28.10;;;;;;4973633;28;20468;-44
2021/04/15 10:03:45;;;;;;;6.83;3.90;;;21.00;28.20;;;;;;4974165;28;20445;-46
2021/04/15 10:06:37;;;;;;;3.13;2.80;;;21.10;28.20;;;;;;4973506;28;20434;-44
2021/04/15 10:09:27;;;;;;;3.27;2.60;;;21.10;28.10;;;;;;4974239;28;20410;-44
2021/04/15 10:12:29;;;;;;;3.00;2.80;;;21.10;28.00;;;;;;4973817;28;20935;-43
2021/04/15 10:15:03;;;;;;;3.10;2.43;;;21.20;28.00;;;;;;4981647;28;20453;-47
2021/04/15 10:17:47;;;;;;;3.20;2.90;;;21.20;27.90;;;;;;4973905;28;20453;-41
2021/04/15 10:20:54;;;;;;;4.80;3.30;;;21.10;27.80;;;;;;4974280;28;20816;-41
2021/04/15 10:23:57;;;;;;;3.10;2.53;;;21.10;27.90;;;;;;4973450;28;20422;-41
2021/04/15 10:26:46;;;;;;;3.00;2.70;;;21.10;27.90;;;;;;4988910;28;20533;-42
2021/04/15 10:29:26;;;;;;;3.40;3.10;;;21.10;28.00;;;;;;4992502;28;20794;-40
2021/04/15 10:32:13;;;;;;;5.13;2.93;;;21.10;28.10;;;;;;4993191;28;20425;-41
2021/04/15 10:34:50;;;;;;;4.30;2.70;;;21.10;28.20;;;;;;4992819;28;20500;-41
2021/04/15 10:37:51;;;;;;;3.10;2.80;;;21.00;28.10;;;;;;4992542;28;20491;-39
2021/04/15 10:40:54;;;;;;;4.20;2.63;;;21.20;28.10;;;;;;4992786;28;20465;-39
2021/04/15 10:43:50;;;;;;;3.57;2.93;;;21.10;27.60;;;;;;4992984;28;20420;-41
2021/04/15 10:46:36;;;;;;;2.77;2.50;;;21.00;27.80;;;;;;4992597;28;20425;-40
2021/04/15 10:49:25;;;;;;;3.50;3.20;;;21.00;27.90;;;;;;4988836;28;20432;-41
2021/04/15 10:52:20;;;;;;;13.93;2.90;;;21.00;27.80;;;;;;4981936;28;20999;-41
2021/04/15 10:54:45;;;;;;;3.93;2.87;;;21.00;27.90;;;;;;4993125;28;20421;-43
2021/04/15 10:57:19;;;;;;;4.27;2.80;;;21.10;27.90;;;;;;4993922;28;20425;-42
2021/04/15 10:59:47;;;;;;;3.03;2.73;;;21.10;27.80;;;;;;4993414;28;20244;-43
2021/04/15 11:02:28;;;;;;;3.67;3.13;;;21.10;27.80;;;;;;4992376;28;20516;-40
2021/04/15 11:05:14;;;;;;;2.60;2.17;;;21.10;28.00;;;;;;4992621;28;20871;-41
2021/04/15 11:07:39;;;;;;;4.47;2.90;;;21.00;28.00;;;;;;4990956;28;20424;-41
2021/04/15 11:10:31;;;;;;;3.53;2.70;;;21.00;28.10;;;;;;4992492;28;20421;-39
2021/04/15 11:13:03;;;;;;;4.77;2.90;;;21.00;28.20;;;;;;4992291;28;20225;-41
2021/04/15 11:15:44;;;;;;;2.60;2.40;;;20.90;28.10;;;;;;4992158;28;20444;-41
2021/04/15 11:18:16;;;;;;;2.50;2.30;;;20.90;28.10;;;;;;4992341;28;20427;-41
2021/04/15 11:20:42;;;;;;;3.20;2.70;;;20.90;28.10;;;;;;4991829;28;20816;-42
2021/04/15 11:23:13;;;;;;;2.30;2.07;;;21.00;28.10;;;;;;4992028;28;20494;-44
2021/04/15 11:25:50;;;;;;;4.03;2.83;;;21.10;28.00;;;;;;4988001;28;21121;-48
2021/04/15 11:28:22;;;;;;;2.70;2.50;;;21.10;27.80;;;;;;4991651;28;20852;-40
2021/04/15 11:30:51;;;;;;;2.33;2.23;;;21.10;27.80;;;;;;4991908;28;20528;-41
2021/04/15 11:33:39;;;;;;;2.80;2.43;;;21.10;27.70;;;;;;4991931;28;20488;-42
2021/04/15 11:36:23;;;;;;;2.10;1.90;;;21.10;27.70;;;;;;4990928;28;20464;-39
2021/04/15 11:38:51;;;;;;;3.10;2.77;;;21.10;27.80;;;;;;4991491;28;20412;-40
2021/04/15 11:41:23;;;;;;;3.57;2.70;;;21.10;27.70;;;;;;4991708;28;21015;-41
2021/04/15 11:44:02;;;;;;;3.77;2.70;;;21.10;27.70;;;;;;4991481;28;20413;-40
2021/04/15 11:46:57;;;;;;;2.43;2.23;;;21.10;27.80;;;;;;4991133;28;20797;-42
2021/04/15 11:49:29;;;;;;;3.17;2.97;;;21.10;27.80;;;;;;4991584;28;21190;-43
2021/04/15 11:52:21;;;;;;;5.60;2.73;;;21.20;27.80;;;;;;4990424;28;20432;-40
2021/04/15 11:54:52;;;;;;;3.17;2.87;;;21.20;27.70;;;;;;4971763;28;20446;-43
2021/04/15 11:57:33;;;;;;;3.03;2.40;;;21.30;27.70;;;;;;4971969;28;20480;-43
2021/04/15 12:00:02;;;;;;;2.60;2.40;;;21.20;27.30;;;;;;4987375;28;20475;-42
2021/04/15 12:02:38;;;;;;;3.63;2.73;;;21.20;27.30;;;;;;4991444;28;20508;-44
2021/04/15 12:05:29;;;;;;;2.83;2.57;;;21.20;27.50;;;;;;4990690;28;20417;-44
2021/04/15 12:08:00;;;;;;;2.40;2.17;;;21.20;27.40;;;;;;4990647;28;20495;-42
2021/04/15 12:10:30;;;;;;;2.63;2.47;;;21.10;27.40;;;;;;4991263;28;20428;-40
2021/04/15 12:13:04;;;;;;;2.53;2.33;;;21.10;27.40;;;;;;4990481;28;20433;-43
2021/04/15 12:15:41;;;;;;;3.57;2.47;;;21.10;27.50;;;;;;4990646;28;20444;-43
2021/04/15 12:18:17;;;;;;;7.23;2.53;;;21.10;27.60;;;;;;4991053;28;20762;-41
2021/04/15 12:20:56;;;;;;;2.27;2.13;;;21.10;27.70;;;;;;4990916;28;20484;-42
2021/04/15 12:23:34;;;;;;;3.20;2.40;;;21.00;27.70;;;;;;4991035;28;20475;-41
2021/04/15 12:26:19;;;;;;;3.13;2.57;;;21.10;27.80;;;;;;4990674;28;20459;-41
2021/04/15 12:29:05;;;;;;;2.70;2.47;;;21.00;27.80;;;;;;4990989;28;20450;-40
2021/04/15 12:31:53;;;;;;;2.70;2.50;;;21.10;27.80;;;;;;4971748;28;20413;-43
2021/04/15 12:34:47;;;;;;;2.80;2.60;;;21.10;27.80;;;;;;4987294;28;20463;-40
2021/04/15 12:37:13;;;;;;;2.70;2.10;;;21.00;27.60;;;;;;4991079;28;20487;-42
2021/04/15 12:40:20;;;;;;;2.70;2.50;;;21.00;27.80;;;;;;4990320;28;20477;-43
2021/04/15 12:42:47;;;;;;;3.57;2.50;;;20.90;27.90;;;;;;4989862;28;20189;-40
2021/04/15 12:45:26;;;;;;;2.30;2.20;;;20.90;27.90;;;;;;4989653;28;20416;-39
2021/04/15 12:47:55;;;;;;;2.50;2.30;;;20.90;27.90;;;;;;4990934;28;20468;-40
2021/04/15 12:50:21;;;;;;;2.80;2.60;;;20.90;28.00;;;;;;4990680;28;20922;-40
2021/04/15 12:52:49;;;;;;;3.50;2.80;;;20.90;27.90;;;;;;4990846;28;20417;-45
2021/04/15 12:55:17;;;;;;;2.70;2.50;;;20.90;27.90;;;;;;4990389;28;20214;-45
2021/04/15 12:57:43;;;;;;;2.63;2.40;;;20.90;27.90;;;;;;4990623;28;20439;-44
2021/04/15 13:00:15;;;;;;;3.77;2.40;;;21.00;27.90;;;;;;4990749;28;20556;-43
2021/04/15 13:02:41;;;;;;;3.17;2.97;;;21.00;27.60;;;;;;4990444;28;20274;-43
2021/04/15 13:05:25;;;;;;;3.27;2.97;;;21.00;27.60;;;;;;4990300;28;20960;-39
2021/04/15 13:07:50;;;;;;;5.30;2.60;;;21.20;27.60;;;;;;4990566;28;20177;-42
